Time;durP1;ratioP1;P1;durP2;ratioP2;P2;SDS_P1;SDS_P2;PMS_P1;PMS_P2;Temp;Humidity;BMP_temperature;BMP_pressure;BME280_temperature;BME280_humidity;BME280_pressure;Samples;Min_cycle;Max_cycle;Signal;HPM_P1;HPM_P2
2022/07/15 00:01:34;;;;;;;20.95;6.30;;;;;;;11.88;86.23;102153.06;5054266;28;20021;-42
2022/07/15 00:04:00;;;;;;;18.48;6.60;;;;;;;11.90;87.05;102150.53;5054104;28;20029;-44
2022/07/15 00:06:25;;;;;;;23.42;7.28;;;;;;;11.89;87.86;102146.19;5053081;28;20044;-42
2022/07/15 00:08:51;;;;;;;17.23;6.40;;;;;;;11.84;86.67;102146.84;5053962;28;20017;-43
2022/07/15 00:11:17;;;;;;;16.48;6.30;;;;;;;11.81;86.61;102149.31;5052915;28;20017;-43
2022/07/15 00:13:42;;;;;;;17.20;6.82;;;;;;;11.72;86.74;102151.47;5052992;28;20029;-42
2022/07/15 00:16:07;;;;;;;16.55;6.78;;;;;;;11.61;87.64;102150.97;5053847;28;20025;-43
2022/07/15 00:18:32;;;;;;;14.43;6.85;;;;;;;11.50;87.53;102150.50;5053735;28;20020;-43
2022/07/15 00:20:58;;;;;;;20.50;6.80;;;;;;;11.44;87.48;102146.72;5052954;28;20095;-42
2022/07/15 00:23:23;;;;;;;17.75;7.07;;;;;;;11.33;87.97;102148.78;5053602;28;20013;-43
2022/07/15 00:25:48;;;;;;;18.15;6.90;;;;;;;11.28;89.30;102148.56;5052582;28;20075;-43
2022/07/15 00:28:14;;;;;;;24.38;6.68;;;;;;;11.23;89.23;102156.91;5053428;28;20025;-43
2022/07/15 00:30:41;;;;;;;16.27;7.07;;;;;;;11.19;89.37;102154.19;5053496;28;20017;-43
2022/07/15 00:33:08;;;;;;;18.30;7.07;;;;;;;11.15;89.42;102146.22;5052587;28;20558;-42
2022/07/15 00:35:35;;;;;;;18.42;7.65;;;;;;;11.04;89.06;102153.47;5053657;28;20032;-42
2022/07/15 00:38:01;;;;;;;19.90;6.90;;;;;;;11.04;90.24;102148.28;5053450;28;20017;-42
2022/07/15 00:40:27;;;;;;;15.48;6.68;;;;;;;11.02;89.88;102139.59;5052539;28;20275;-45
2022/07/15 00:42:52;;;;;;;18.40;6.03;;;;;;;10.93;89.20;102144.31;5053140;28;20439;-46
2022/07/15 00:45:21;;;;;;;20.63;7.15;;;;;;;10.86;89.73;102138.84;5053473;28;20033;-43
2022/07/15 00:47:48;;;;;;;20.52;6.85;;;;;;;10.92;90.93;102142.53;5052511;28;20087;-44
2022/07/15 00:50:15;;;;;;;24.42;6.93;;;;;;;10.93;91.15;102146.88;5052955;28;20029;-43
2022/07/15 00:52:45;;;;;;;22.25;6.93;;;;;;;10.86;90.42;102144.00;5053044;28;20029;-43
2022/07/15 00:55:12;;;;;;;22.60;7.00;;;;;;;10.77;90.40;102153.84;5052060;28;20484;-44
2022/07/15 00:57:43;;;;;;;17.52;7.43;;;;;;;10.75;90.38;102145.16;5053126;28;20380;-44
2022/07/15 01:00:12;;;;;;;21.08;5.95;;;;;;;10.77;91.18;102145.22;5052721;28;20581;-44
2022/07/15 01:02:40;;;;;;;17.83;6.45;;;;;;;10.74;90.44;102143.38;5052413;28;20044;-41
2022/07/15 01:05:05;;;;;;;;;;;;;;;10.82;87.29;102139.50;5053145;28;20472;-42
2022/07/15 01:07:32;;;;;;;18.48;5.78;;;;;;;10.70;89.91;102136.28;5052887;28;19912;-48
2022/07/15 01:09:58;;;;;;;17.60;7.32;;;;;;;10.67;89.94;102138.75;5052010;28;20032;-44
2022/07/15 01:12:24;;;;;;;17.45;6.03;;;;;;;10.52;90.11;102134.59;5052897;28;20025;-44
2022/07/15 01:14:49;;;;;;;20.00;7.18;;;;;;;10.48;90.42;102142.06;5052911;28;20025;-42
2022/07/15 01:17:15;;;;;;;14.77;6.38;;;;;;;10.39;90.75;102132.16;5052010;28;20385;-42
2022/07/15 01:19:40;;;;;;;20.50;6.13;;;;;;;10.31;90.12;102136.91;5052813;28;20039;-43
2022/07/15 01:22:05;;;;;;;17.20;6.57;;;;;;;10.33;91.17;102134.44;5051580;28;20021;-44
2022/07/15 01:24:31;;;;;;;16.48;6.60;;;;;;;10.25;91.01;102146.91;5052769;28;20025;-42
2022/07/15 01:26:56;;;;;;;20.60;6.95;;;;;;;10.20;91.43;102140.66;5052410;28;20126;-44
2022/07/15 01:29:21;;;;;;;17.48;6.15;;;;;;;10.19;92.08;102139.72;5051945;28;20025;-46
2022/07/15 01:31:47;;;;;;;22.63;6.90;;;;;;;10.21;92.75;102140.72;5052805;28;20063;-42
2022/07/15 01:34:12;;;;;;;19.85;6.30;;;;;;;10.25;92.54;102157.22;5052516;28;20100;-42
2022/07/15 01:36:37;;;;;;;14.35;6.35;;;;;;;10.29;92.21;102153.09;5051956;28;20416;-42
2022/07/15 01:39:03;;;;;;;21.45;6.57;;;;;;;10.37;92.69;102157.00;5052220;28;20218;-47
2022/07/15 01:41:29;;;;;;;25.35;6.30;;;;;;;10.45;92.90;102149.66;5052838;28;20029;-43
2022/07/15 01:43:54;;;;;;;16.58;6.53;;;;;;;10.50;93.80;102149.06;5052027;28;20044;-42
2022/07/15 01:46:19;;;;;;;17.60;6.72;;;;;;;10.58;93.50;102156.31;5052251;28;20128;-42
2022/07/15 01:51:29;;;;;;;23.90;6.53;;;;;;;10.58;93.38;102156.31;5052013;28;20052;-43
2022/07/15 01:53:55;;;;;;;20.33;6.95;;;;;;;10.64;93.28;102164.34;5052410;28;20017;-42
2022/07/15 01:56:20;;;;;;;21.65;6.90;;;;;;;10.63;93.62;102157.44;5052280;28;20036;-44
2022/07/15 01:58:45;;;;;;;17.98;6.50;;;;;;;10.69;93.45;102160.31;5051807;28;20100;-44
2022/07/15 02:01:11;;;;;;;20.35;6.93;;;;;;;10.70;93.45;102165.56;5052304;28;20040;-43
2022/07/15 02:03:36;;;;;;;23.45;7.40;;;;;;;10.75;93.99;102154.59;5052389;28;20028;-43
2022/07/15 02:06:02;;;;;;;18.15;6.35;;;;;;;10.75;92.71;102159.75;5051432;28;20029;-43
2022/07/15 02:08:27;;;;;;;23.05;7.03;;;;;;;10.70;92.66;102159.50;5052423;28;20057;-42
2022/07/15 02:10:52;;;;;;;19.90;7.55;;;;;;;10.70;92.87;102167.25;5052434;28;20025;-42
2022/07/15 02:13:18;;;;;;;19.00;6.32;;;;;;;10.53;92.31;102164.72;5051340;28;20029;-44
2022/07/15 02:15:43;;;;;;;16.42;6.45;;;;;;;10.48;92.12;102161.03;5052428;28;20024;-43
2022/07/15 02:18:10;;;;;;;16.30;6.38;;;;;;;10.34;91.70;102165.44;5052139;28;20025;-43
2022/07/15 02:20:36;;;;;;;22.00;6.35;;;;;;;10.26;91.89;102163.25;5051457;28;20033;-42
2022/07/15 02:23:01;;;;;;;19.17;7.35;;;;;;;10.13;91.49;102161.72;5052038;28;20079;-42
2022/07/15 02:25:29;;;;;;;19.35;6.80;;;;;;;10.04;91.60;102157.88;5051511;28;20045;-42
2022/07/15 02:27:58;;;;;;;;;;;;;;;10.14;89.33;102154.06;5052493;28;20495;-45
2022/07/15 02:30:35;;;;;;;20.63;6.93;;;;;;;9.93;91.41;102159.00;5052013;28;19919;-42
2022/07/15 02:33:01;;;;;;;22.65;6.90;;;;;;;9.92;92.74;102157.22;5051803;28;20048;-44
2022/07/15 02:35:27;;;;;;;19.73;7.47;;;;;;;9.88;93.43;102157.84;5055673;28;20025;-45
2022/07/15 02:37:53;;;;;;;20.88;7.25;;;;;;;9.87;93.38;102154.38;5055827;28;20079;-44
2022/07/15 02:40:18;;;;;;;25.73;7.68;;;;;;;9.88;93.21;102160.44;5054661;28;20091;-43
2022/07/15 02:42:49;;;;;;;18.70;6.70;;;;;;;9.84;92.59;102154.22;5055835;28;20025;-43
2022/07/15 02:45:14;;;;;;;22.40;6.82;;;;;;;9.86;93.29;102150.06;5055453;28;20032;-43
2022/07/15 02:47:39;;;;;;;20.27;6.75;;;;;;;9.87;93.63;102154.38;5054584;28;20029;-42
2022/07/15 02:50:05;;;;;;;18.83;6.68;;;;;;;9.88;92.48;102165.59;5055477;28;20112;-43
2022/07/15 02:52:30;;;;;;;18.85;7.32;;;;;;;9.81;92.42;102156.66;5055365;28;20388;-43
2022/07/15 02:54:56;;;;;;;20.30;8.00;;;;;;;9.80;93.95;102159.13;5054441;28;20033;-42
2022/07/15 02:57:21;;;;;;;23.20;8.68;;;;;;;9.82;95.34;102162.66;5055241;28;20021;-42
2022/07/15 02:59:47;;;;;;;29.70;8.90;;;;;;;9.85;95.82;102166.31;5055435;28;20017;-42
2022/07/15 03:02:12;;;;;;;26.10;8.73;;;;;;;9.87;96.51;102169.81;5054219;28;20025;-43
2022/07/15 03:04:37;;;;;;;26.33;9.27;;;;;;;9.85;96.30;102173.13;5055093;28;20032;-42
2022/07/15 03:07:03;;;;;;;29.17;8.65;;;;;;;9.83;96.45;102177.31;5055186;28;20025;-42
2022/07/15 03:09:28;;;;;;;34.63;9.35;;;;;;;9.85;96.78;102186.91;5054454;28;20037;-44
2022/07/15 03:11:53;;;;;;;26.20;8.88;;;;;;;9.83;96.64;102185.91;5054981;28;20414;-42
2022/07/15 03:14:18;;;;;;;20.20;8.73;;;;;;;9.84;96.79;102187.69;5054797;28;20040;-41
2022/07/15 03:16:44;;;;;;;21.85;9.10;;;;;;;9.82;96.64;102191.88;5054172;28;20476;-42
2022/07/15 03:19:09;;;;;;;28.60;8.15;;;;;;;9.79;96.02;102181.41;5054496;28;20021;-43
2022/07/15 03:21:34;;;;;;;19.33;8.25;;;;;;;9.82;96.19;102191.88;5054370;28;20029;-42
2022/07/15 03:24:00;;;;;;;24.25;8.10;;;;;;;9.77;95.87;102195.88;5055003;28;20029;-42
2022/07/15 03:26:25;;;;;;;23.80;8.82;;;;;;;9.84;96.83;102198.00;5054497;28;20051;-42
2022/07/15 03:28:50;;;;;;;19.85;9.02;;;;;;;9.87;96.89;102200.72;5053981;28;20408;-42
2022/07/15 03:31:15;;;;;;;21.23;9.02;;;;;;;9.92;96.46;102202.69;5054548;28;20025;-42
2022/07/15 03:33:41;;;;;;;17.38;7.30;;;;;;;9.80;96.00;102203.78;5054651;28;20035;-42
2022/07/15 03:36:06;;;;;;;26.00;9.68;;;;;;;9.87;97.04;102198.16;5053656;28;20115;-42
2022/07/15 03:38:32;;;;;;;24.00;8.43;;;;;;;9.73;96.12;102204.25;5054599;28;20017;-42
2022/07/15 03:40:58;;;;;;;22.17;8.60;;;;;;;9.59;94.95;102206.06;5054550;28;20025;-43
2022/07/15 03:43:26;;;;;;;23.17;8.63;;;;;;;9.53;95.00;102208.31;5053541;28;20133;-42
2022/07/15 03:45:52;;;;;;;19.05;7.60;;;;;;;9.47;94.80;102213.09;5054204;28;20025;-41
2022/07/15 03:48:18;;;;;;;18.40;7.68;;;;;;;9.37;94.56;102207.44;5054169;28;20021;-42
2022/07/15 03:50:43;;;;;;;20.52;8.95;;;;;;;9.37;94.59;102203.97;5053771;28;20020;-42
2022/07/15 03:53:09;;;;;;;20.05;8.50;;;;;;;9.35;95.88;102211.59;5054239;28;20028;-44
2022/07/15 03:55:36;;;;;;;26.90;10.07;;;;;;;9.41;97.58;102217.91;5054325;28;20468;-42
2022/07/15 03:58:01;;;;;;;25.88;9.95;;;;;;;9.50;97.76;102218.41;5053419;28;20021;-42
2022/07/15 04:00:27;;;;;;;31.17;10.10;;;;;;;9.60;98.53;102236.13;5053919;28;20028;-41
2022/07/15 04:02:52;;;;;;;25.80;9.48;;;;;;;9.62;97.47;102226.84;5053912;28;20021;-44
2022/07/15 04:05:17;;;;;;;26.13;10.27;;;;;;;9.65;97.91;102223.53;5053298;28;20503;-42
2022/07/15 04:07:43;;;;;;;29.42;10.40;;;;;;;9.73;98.96;102219.69;5053900;28;20078;-41
2022/07/15 04:10:08;;;;;;;22.95;9.95;;;;;;;9.84;99.65;102228.03;5053728;28;20036;-45
2022/07/15 04:12:33;;;;;;;25.80;10.30;;;;;;;9.84;99.85;102231.47;5053233;28;20033;-42
2022/07/15 04:14:59;;;;;;;28.80;10.55;;;;;;;9.94;100.00;102231.97;5053822;28;20032;-41
2022/07/15 04:17:24;;;;;;;30.83;10.95;;;;;;;10.03;100.00;102228.22;5053614;28;20024;-42
2022/07/15 04:19:49;;;;;;;33.83;11.63;;;;;;;10.13;100.00;102219.28;5053114;28;20138;-43
2022/07/15 04:22:14;;;;;;;32.65;11.25;;;;;;;10.26;100.00;102219.94;5053731;28;20387;-42
2022/07/15 04:24:40;;;;;;;30.95;10.80;;;;;;;10.36;100.00;102222.22;5053787;28;20029;-43
2022/07/15 04:27:05;;;;;;;27.23;11.68;;;;;;;10.52;100.00;102224.81;5052370;28;20492;-43
2022/07/15 04:29:30;;;;;;;26.58;10.98;;;;;;;10.66;100.00;102224.63;5053551;28;20127;-42
2022/07/15 04:31:56;;;;;;;30.45;10.25;;;;;;;10.83;100.00;102225.47;5052595;28;20028;-43
2022/07/15 04:34:21;;;;;;;36.22;11.40;;;;;;;10.94;99.82;102231.19;5053509;28;20029;-42
2022/07/15 04:36:46;;;;;;;28.85;10.45;;;;;;;11.05;99.38;102224.84;5053708;28;20078;-42
2022/07/15 04:39:12;;;;;;;35.00;10.20;;;;;;;11.10;98.66;102231.13;5052337;28;20078;-42
2022/07/15 04:41:37;;;;;;;28.90;10.63;;;;;;;11.20;98.31;102230.78;5053481;28;20020;-44
2022/07/15 04:44:02;;;;;;;37.00;11.52;;;;;;;11.26;97.80;102237.97;5053190;28;20028;-42
2022/07/15 04:46:28;;;;;;;30.48;10.73;;;;;;;11.32;96.95;102239.94;5052497;28;20055;-43
2022/07/15 04:51:36;;;;;;;30.55;11.10;;;;;;;11.39;96.36;102241.13;5053600;28;20028;-44
2022/07/15 04:54:02;;;;;;;28.45;11.20;;;;;;;11.38;96.47;102237.66;5052124;28;20029;-42
2022/07/15 04:56:27;;;;;;;43.08;11.25;;;;;;;11.43;96.05;102236.19;5052694;28;20029;-44
2022/07/15 04:58:52;;;;;;;39.15;11.88;;;;;;;11.49;95.99;102233.91;5052917;28;20017;-45
2022/07/15 05:01:17;;;;;;;38.22;11.52;;;;;;;11.45;96.45;102229.41;5052038;28;20469;-42
2022/07/15 05:03:43;;;;;;;29.73;13.02;;;;;;;11.45;96.78;102234.59;5053274;28;20021;-42
2022/07/15 05:06:08;;;;;;;25.45;11.75;;;;;;;11.47;97.29;102237.22;5052618;28;20372;-43
2022/07/15 05:08:33;;;;;;;25.98;11.07;;;;;;;11.45;97.53;102229.41;5052213;28;20075;-44
2022/07/15 05:10:59;;;;;;;31.33;11.77;;;;;;;11.46;97.54;102241.50;5052842;28;20472;-43
2022/07/15 05:13:24;;;;;;;30.75;11.35;;;;;;;11.50;97.81;102235.69;5052606;28;20056;-43
2022/07/15 05:15:49;;;;;;;28.55;12.68;;;;;;;11.52;98.04;102238.34;5051953;28;20052;-43
2022/07/15 05:18:14;;;;;;;35.88;12.13;;;;;;;11.55;98.08;102241.06;5052631;28;20081;-42
2022/07/15 05:20:40;;;;;;;29.02;11.77;;;;;;;11.58;98.30;102245.47;5052887;28;20032;-43
2022/07/15 05:23:06;;;;;;;29.95;10.70;;;;;;;11.63;98.00;102244.00;5051850;28;20029;-43
2022/07/15 05:25:31;;;;;;;27.17;11.60;;;;;;;11.67;98.79;102241.66;5052614;28;20037;-43
2022/07/15 05:27:57;;;;;;;26.48;10.50;;;;;;;11.75;98.06;102243.69;5052617;28;20036;-42
2022/07/15 05:30:22;;;;;;;29.35;11.50;;;;;;;11.82;98.91;102256.97;5051617;28;20032;-43
2022/07/15 05:32:47;;;;;;;27.25;11.38;;;;;;;11.89;99.17;102249.50;5052681;28;20473;-42
2022/07/15 05:35:14;;;;;;;26.55;10.35;;;;;;;11.95;98.60;102242.06;5052029;28;20021;-42
2022/07/15 05:37:40;;;;;;;26.13;9.77;;;;;;;12.02;98.17;102241.56;5052658;28;20025;-42
2022/07/15 05:40:07;;;;;;;26.60;9.75;;;;;;;12.11;98.07;102239.41;5052339;28;20027;-44
2022/07/15 05:42:33;;;;;;;30.67;10.25;;;;;;;12.20;97.85;102244.09;5051861;28;20033;-42
2022/07/15 05:44:58;;;;;;;26.88;9.70;;;;;;;12.25;96.99;102232.28;5052334;28;20025;-43
2022/07/15 05:47:24;;;;;;;21.25;8.18;;;;;;;12.38;96.72;102233.69;5052259;28;20041;-43
2022/07/15 05:49:49;;;;;;;20.48;7.90;;;;;;;12.46;96.76;102237.50;5051718;28;20108;-43
2022/07/15 05:52:14;;;;;;;20.05;7.28;;;;;;;12.56;95.79;102236.19;5052364;28;20078;-43
2022/07/15 05:54:39;;;;;;;25.90;7.72;;;;;;;12.68;96.25;102235.88;5052645;28;20039;-44
2022/07/15 05:57:05;;;;;;;18.85;6.50;;;;;;;12.74;93.89;102235.22;5051429;28;20025;-43
2022/07/15 05:59:31;;;;;;;20.52;6.53;;;;;;;12.83;93.84;102233.03;5052450;28;20472;-46
2022/07/15 06:01:57;;;;;;;22.73;5.95;;;;;;;12.94;93.85;102234.38;5052530;28;20021;-43
2022/07/15 06:04:26;;;;;;;17.02;6.03;;;;;;;13.00;93.73;102236.34;5051536;28;20068;-44
2022/07/15 06:06:51;;;;;;;18.80;5.68;;;;;;;13.08;91.96;102236.66;5052353;28;20033;-43
2022/07/15 06:09:16;;;;;;;18.45;5.53;;;;;;;13.17;92.75;102235.34;5054297;28;20040;-42
2022/07/15 06:11:42;;;;;;;18.33;5.13;;;;;;;13.24;91.47;102230.41;5055470;28;20021;-42
2022/07/15 06:14:07;;;;;;;18.02;5.32;;;;;;;13.31;89.67;102233.31;5055819;28;20036;-43
2022/07/15 06:16:32;;;;;;;18.15;4.75;;;;;;;13.43;88.60;102232.09;5056259;28;20029;-43
2022/07/15 06:18:58;;;;;;;16.80;4.97;;;;;;;13.50;88.67;102232.41;5055301;28;20104;-42
2022/07/15 06:21:23;;;;;;;20.02;4.82;;;;;;;13.60;86.89;102233.63;5055788;28;20104;-43
2022/07/15 06:23:49;;;;;;;16.05;4.72;;;;;;;13.69;87.36;102238.28;5055828;28;20059;-43
2022/07/15 06:26:14;;;;;;;11.55;3.47;;;;;;;13.73;84.70;102242.75;5054785;28;20450;-44
2022/07/15 06:28:39;;;;;;;16.10;3.72;;;;;;;13.87;85.86;102240.72;5055826;28;20033;-43
2022/07/15 06:31:04;;;;;;;11.82;3.10;;;;;;;13.94;85.30;102241.81;5055734;28;20446;-42
2022/07/15 06:33:30;;;;;;;16.92;3.25;;;;;;;14.03;83.50;102236.09;5055129;28;20025;-42
2022/07/15 06:35:55;;;;;;;13.45;3.65;;;;;;;14.07;81.78;102238.88;5055496;28;20489;-43
2022/07/15 06:38:21;;;;;;;15.32;3.40;;;;;;;14.16;83.43;102233.13;5055575;28;20017;-43
2022/07/15 06:40:46;;;;;;;15.73;3.10;;;;;;;14.21;82.25;102233.31;5054947;28;20032;-43
2022/07/15 06:43:12;;;;;;;14.57;2.92;;;;;;;14.27;81.59;102241.31;5055190;28;20028;-42
2022/07/15 06:45:37;;;;;;;14.10;2.70;;;;;;;14.33;78.62;102237.25;5054828;28;20460;-44
2022/07/15 06:48:02;;;;;;;11.68;3.30;;;;;;;14.40;78.53;102238.34;5055375;28;20082;-43
2022/07/15 06:50:28;;;;;;;18.90;3.20;;;;;;;14.51;79.77;102243.03;5055554;28;20017;-45
2022/07/15 06:52:54;;;;;;;18.33;3.33;;;;;;;14.54;77.91;102240.53;5054699;28;20236;-42
2022/07/15 06:55:19;;;;;;;17.35;3.38;;;;;;;14.65;78.52;102236.66;5055020;28;20543;-43
2022/07/15 06:57:44;;;;;;;16.02;2.90;;;;;;;14.70;77.46;102232.50;5055114;28;20087;-43
2022/07/15 07:00:11;;;;;;;14.90;2.90;;;;;;;14.80;76.95;102239.78;5054642;28;20448;-43
2022/07/15 07:02:37;;;;;;;13.25;2.90;;;;;;;14.82;75.15;102238.13;5055324;28;20025;-43
2022/07/15 07:05:04;;;;;;;14.50;3.25;;;;;;;14.90;75.99;102242.69;5054755;28;20104;-44
2022/07/15 07:07:30;;;;;;;16.58;3.17;;;;;;;14.97;76.15;102239.47;5052504;28;20044;-46
2022/07/15 07:09:55;;;;;;;18.55;3.13;;;;;;;15.02;75.33;102239.66;5055067;28;20029;-43
2022/07/15 07:12:20;;;;;;;10.93;3.40;;;;;;;15.09;75.82;102241.59;5054894;28;20392;-47
2022/07/15 07:14:46;;;;;;;16.58;3.35;;;;;;;15.16;75.31;102248.78;5054499;28;20123;-43
2022/07/15 07:17:11;;;;;;;19.08;2.63;;;;;;;15.22;74.20;102242.88;5054902;28;20468;-44
2022/07/15 07:19:36;;;;;;;12.95;2.70;;;;;;;15.36;76.01;102239.00;5054527;28;20048;-43
2022/07/15 07:22:02;;;;;;;10.73;2.60;;;;;;;15.40;72.31;102250.38;5054262;28;20063;-44
2022/07/15 07:24:27;;;;;;;13.30;2.85;;;;;;;15.56;73.27;102259.59;5054750;28;20171;-42
2022/07/15 07:26:52;;;;;;;15.43;2.67;;;;;;;15.72;72.20;102250.53;5054279;28;20063;-43
2022/07/15 07:29:22;;;;;;;13.23;3.17;;;;;;;15.90;70.63;102250.25;5053728;28;20041;-44
2022/07/15 07:31:48;;;;;;;11.35;2.25;;;;;;;16.01;69.13;102245.34;5054737;28;20104;-42
2022/07/15 07:34:14;;;;;;;11.93;2.63;;;;;;;16.11;67.75;102243.09;5054304;28;20487;-42
2022/07/15 07:36:39;;;;;;;9.82;2.25;;;;;;;16.10;68.63;102254.31;5053947;28;20037;-44
2022/07/15 07:39:04;;;;;;;14.82;2.30;;;;;;;16.15;69.33;102257.03;5054374;28;20487;-43
2022/07/15 07:41:30;;;;;;;8.50;2.13;;;;;;;16.19;66.73;102250.22;5054426;28;20060;-43
2022/07/15 07:43:55;;;;;;;9.65;2.40;;;;;;;16.22;66.15;102248.59;5053671;28;20025;-42
2022/07/15 07:46:20;;;;;;;10.05;2.17;;;;;;;16.10;65.30;102264.72;5054352;28;20028;-43
2022/07/15 07:48:46;;;;;;;16.30;1.92;;;;;;;15.95;66.17;102274.66;5054452;28;20491;-43
2022/07/15 07:51:11;;;;;;;12.10;1.85;;;;;;;15.83;64.61;102274.28;5053441;28;20147;-43
2022/07/15 07:53:36;;;;;;;8.77;1.95;;;;;;;15.70;64.81;102268.69;5054330;28;20107;-46
2022/07/15 07:56:03;;;;;;;7.88;1.77;;;;;;;15.75;65.44;102258.41;5053356;28;20033;-42
2022/07/15 07:58:28;;;;;;;9.20;1.63;;;;;;;15.73;66.61;102263.56;5054376;28;20032;-45
2022/07/15 08:00:55;;;;;;;12.15;2.10;;;;;;;15.78;66.44;102264.59;5054048;28;20017;-42
2022/07/15 08:03:21;;;;;;;12.18;2.10;;;;;;;15.84;66.58;102256.16;5053357;28;20112;-42
2022/07/15 08:05:46;;;;;;;8.82;1.77;;;;;;;15.80;65.96;102255.13;5054021;28;20103;-43
2022/07/15 08:08:20;;;;;;;14.60;2.03;;;;;;;15.98;68.65;102253.94;5053648;28;20021;-43
2022/07/15 08:10:48;;;;;;;10.32;1.92;;;;;;;15.96;67.00;102260.84;5053237;28;20029;-42
2022/07/15 08:13:16;;;;;;;9.77;1.88;;;;;;;15.97;66.32;102265.19;5053945;28;20025;-42
2022/07/15 08:15:41;;;;;;;11.30;2.08;;;;;;;16.18;65.66;102261.44;5053994;28;20025;-43
2022/07/15 08:18:06;;;;;;;14.50;2.10;;;;;;;16.29;63.10;102260.94;5052888;28;20237;-44
2022/07/15 08:20:32;;;;;;;11.45;1.75;;;;;;;16.48;63.82;102255.38;5053728;28;20025;-43
2022/07/15 08:23:01;;;;;;;10.32;2.30;;;;;;;16.61;63.15;102260.06;5053729;28;20036;-43
2022/07/15 08:25:28;;;;;;;12.48;2.17;;;;;;;16.74;62.74;102264.75;5052488;28;20468;-43
2022/07/15 08:27:56;;;;;;;14.98;2.78;;;;;;;16.90;64.42;102265.16;5053587;28;20032;-43
2022/07/15 08:30:21;;;;;;;12.40;1.88;;;;;;;16.95;60.86;102261.88;5053434;28;20025;-42
2022/07/15 08:32:47;;;;;;;11.18;1.92;;;;;;;17.11;60.74;102262.28;5052362;28;20033;-43
2022/07/15 08:35:12;;;;;;;8.45;1.63;;;;;;;17.23;62.06;102264.31;5053192;28;20090;-43
2022/07/15 08:37:37;;;;;;;8.98;1.52;;;;;;;17.30;60.54;102258.41;5053357;28;20492;-42
2022/07/15 08:40:05;;;;;;;9.82;2.10;;;;;;;17.36;59.02;102258.53;5052315;28;20503;-45
2022/07/15 08:42:31;;;;;;;9.65;2.17;;;;;;;17.61;62.44;102260.00;5053503;28;20029;-42
2022/07/15 08:44:56;;;;;;;9.65;2.25;;;;;;;17.73;59.48;102267.22;5053316;28;20092;-43
2022/07/15 08:47:23;;;;;;;15.43;1.77;;;;;;;17.92;60.13;102265.00;5052392;28;20037;-43
2022/07/15 08:49:55;;;;;;;8.45;1.40;;;;;;;18.02;58.01;102253.97;5053164;28;20045;-44
2022/07/15 08:52:22;;;;;;;8.10;1.80;;;;;;;18.07;58.08;102257.53;5052401;28;20460;-43
2022/07/15 08:54:48;;;;;;;10.77;1.92;;;;;;;18.15;58.59;102254.22;5053328;28;20033;-43
2022/07/15 08:57:14;;;;;;;9.55;1.50;;;;;;;18.24;56.59;102251.81;5053075;28;20021;-46
2022/07/15 08:59:39;;;;;;;8.65;1.65;;;;;;;18.39;56.21;102259.06;5052776;28;20029;-42
2022/07/15 09:02:05;;;;;;;11.02;2.33;;;;;;;18.37;53.44;102246.00;5052860;28;20112;-46
2022/07/15 09:04:30;;;;;;;7.82;1.58;;;;;;;18.45;54.34;102247.84;5053023;28;20039;-42
2022/07/15 09:07:03;;;;;;;7.68;1.45;;;;;;;18.56;53.99;102255.03;5052017;28;20024;-42
2022/07/15 09:09:36;;;;;;;13.65;2.15;;;;;;;18.75;53.77;102248.44;5053188;28;20021;-41
2022/07/15 09:12:04;;;;;;;7.80;1.48;;;;;;;18.89;52.72;102250.44;5052714;28;20039;-42
2022/07/15 09:14:31;;;;;;;8.55;2.10;;;;;;;18.93;52.60;102244.44;5052016;28;20536;-43
2022/07/15 09:17:08;;;;;;;10.05;1.77;;;;;;;19.03;53.20;102248.97;5052863;28;20025;-43
2022/07/15 09:19:59;;;;;;;8.68;1.70;;;;;;;19.17;53.03;102243.06;5052710;28;20025;-44
2022/07/15 09:22:27;;;;;;;16.25;1.58;;;;;;;19.27;51.23;102251.97;5052029;28;20033;-43
2022/07/15 09:25:05;;;;;;;9.13;1.23;;;;;;;19.27;49.55;102244.97;5052547;28;20528;-41
2022/07/15 09:27:33;;;;;;;10.68;1.48;;;;;;;19.34;48.02;102243.34;5051663;28;20448;-41
2022/07/15 09:36:04;;;;;;;8.57;1.52;;;;;;;19.84;49.91;102244.97;5052041;28;20112;-41
2022/07/15 09:38:56;;;;;;;8.35;1.30;;;;;;;19.98;48.75;102243.41;5052844;28;20037;-42
2022/07/15 09:41:29;;;;;;;6.47;1.30;;;;;;;20.30;50.96;102244.69;5051648;28;20040;-41
2022/07/15 09:43:58;;;;;;;6.53;1.38;;;;;;;20.42;47.01;102250.03;5055939;28;20025;-41
2022/07/15 09:46:27;;;;;;;7.70;1.02;;;;;;;20.71;46.92;102245.13;5056578;28;20158;-42
2022/07/15 09:48:53;;;;;;;8.77;1.10;;;;;;;20.76;45.33;102245.19;5055954;28;20487;-41
2022/07/15 09:51:19;;;;;;;7.63;1.55;;;;;;;20.96;45.55;102241.88;5056364;28;20029;-41
2022/07/15 09:53:45;;;;;;;6.95;1.20;;;;;;;21.20;47.92;102238.53;5056421;28;20037;-42
2022/07/15 09:56:21;;;;;;;9.38;1.30;;;;;;;21.29;45.61;102246.50;5055581;28;20032;-42
2022/07/15 09:58:47;;;;;;;8.68;1.33;;;;;;;21.60;43.39;102246.75;5056556;28;20025;-42
2022/07/15 10:01:12;;;;;;;7.00;1.00;;;;;;;21.98;41.44;102235.53;5056065;28;20040;-41
2022/07/15 10:03:38;;;;;;;9.45;1.33;;;;;;;22.23;41.61;102235.63;5055841;28;20074;-41
2022/07/15 10:06:04;;;;;;;6.20;1.40;;;;;;;22.31;41.50;102231.28;5056210;28;20602;-43
2022/07/15 10:08:31;;;;;;;6.25;1.38;;;;;;;22.60;41.09;102238.38;5056201;28;20107;-42
2022/07/15 10:10:57;;;;;;;6.45;1.05;;;;;;;22.81;40.84;102240.19;5055370;28;20477;-42
2022/07/15 10:13:56;;;;;;;3.47;1.08;;;;;;;23.38;39.98;102238.41;5056113;28;20059;-41
2022/07/15 10:16:37;;;;;;;7.32;1.00;;;;;;;23.86;37.77;102235.66;5056260;28;20107;-41
2022/07/15 10:19:26;;;;;;;6.93;1.23;;;;;;;23.86;36.97;102226.00;5056007;28;20032;-41
2022/07/15 10:22:04;;;;;;;4.72;1.00;;;;;;;24.16;38.58;102221.50;5055942;28;20052;-41
2022/07/15 10:24:48;;;;;;;8.30;1.30;;;;;;;25.13;38.19;102212.03;5055504;28;20029;-41
2022/07/15 10:27:32;;;;;;;8.90;1.10;;;;;;;25.65;38.34;102221.19;5055624;28;20049;-42
2022/07/15 10:30:03;;;;;;;5.25;1.08;;;;;;;26.25;35.96;102220.44;5055767;28;20112;-41
2022/07/15 10:32:29;;;;;;;9.77;1.30;;;;;;;25.89;33.38;102219.16;5055146;28;20021;-41
2022/07/15 10:34:54;;;;;;;6.45;1.25;;;;;;;25.42;34.56;102214.41;5055871;28;20116;-41
2022/07/15 10:37:19;;;;;;;10.50;1.20;;;;;;;24.83;35.92;102221.97;5055606;28;20052;-42
2022/07/15 10:39:57;;;;;;;8.65;1.10;;;;;;;24.37;37.39;102219.63;5054971;28;20275;-42
2022/07/15 10:42:23;;;;;;;6.20;1.42;;;;;;;24.24;36.75;102218.84;5055586;28;20036;-41
2022/07/15 10:44:58;;;;;;;10.95;1.33;;;;;;;23.83;37.99;102216.38;5054740;28;20381;-41
2022/07/15 10:47:24;;;;;;;8.77;1.38;;;;;;;23.56;37.28;102212.03;5055599;28;20119;-43
2022/07/15 10:49:50;;;;;;;4.72;1.00;;;;;;;23.62;40.71;102209.41;5055612;28;20105;-41
2022/07/15 10:52:17;;;;;;;10.23;1.20;;;;;;;24.95;36.80;102198.13;5054532;28;20681;-43
2022/07/15 10:54:49;;;;;;;7.60;1.13;;;;;;;26.38;33.67;102201.78;5054730;28;20024;-41
2022/07/15 10:57:17;;;;;;;8.73;1.42;;;;;;;27.05;32.38;102193.59;5055263;28;20051;-42
2022/07/15 10:59:54;;;;;;;9.88;1.27;;;;;;;28.40;33.21;102194.38;5054600;28;20457;-47
2022/07/15 11:02:21;;;;;;;6.28;1.02;;;;;;;28.83;30.20;102189.81;5055322;28;20040;-41
2022/07/15 11:04:48;;;;;;;6.55;0.85;;;;;;;28.92;29.26;102184.25;5055313;28;20024;-44
2022/07/15 11:07:14;;;;;;;7.55;1.05;;;;;;;29.13;28.45;102188.13;5054227;28;20467;-42
2022/07/15 11:09:50;;;;;;;8.95;1.17;;;;;;;28.10;30.99;102194.19;5055138;28;20484;-41
2022/07/15 11:12:19;;;;;;;7.05;0.85;;;;;;;27.94;31.39;102188.34;5055196;28;20039;-44
2022/07/15 11:14:53;;;;;;;3.00;0.80;;;;;;;28.49;29.82;102188.84;5054339;28;20112;-42
2022/07/15 11:17:38;;;;;;;6.30;1.08;;;;;;;29.39;29.47;102184.78;5054946;28;20025;-41
2022/07/15 11:20:32;;;;;;;8.73;0.88;;;;;;;29.93;28.87;102195.66;5054013;28;20028;-40
2022/07/15 19:09:46;;;;;;;11.77;3.22;;;;;;;18.17;55.32;102007.28;5173101;27;20830;-43
2022/07/15 19:12:11;;;;;;;8.30;3.00;;;;;;;18.04;55.56;102017.50;5151110;27;20084;-44
2022/07/15 19:14:36;;;;;;;9.23;2.50;;;;;;;17.92;56.27;102012.00;5151948;27;20410;-43
2022/07/15 19:17:02;;;;;;;8.18;2.88;;;;;;;17.81;56.02;102010.97;5151738;27;20026;-44